CAL5522 EDDF-RCTP
Flight info
| Callsign | CAL5522 |
|---|---|
| Flight time | N/A |
| Altitude | 40000 |
| Route | SULUS4D SULUS Z650 VEMUT DCT BUDEX DCT MAREG DCT ALAMU DCT BUDOP DCT IRLOX DCT OPT DCT LUGEB DCT UDROS UM859 KARDE UN644 ROLIN N644 LAGAS M747 SUBUT T923 ERLEV M11 RODAR A909 TUNEK B143 KRS B447 ETRAP B449 RANAH L750 MERUN G452 LKN R460 CEA L507 BKK N506 GOMES B204 REP W14 VIBUN L880 VEMKO G474 ANINA/K0900F400 G474 PCA L628 MESOX/N0485F400 L628 ARESI L625 ABVAR M646 POTIB Q14 TNN TNN1A |
| Aircraft | B77L/H-SDE1E2E3FGHIJ1J2J3J4J5M1P2RWY/LB1D1 |
Departure
| Time | N/A |
|---|---|
| Airport | Frankfurt Main Airport (EDDF) |
Arrival
| Time | 2026-04-30 13:55 |
|---|---|
| Airport | Taiwan Taoyuan International Airport (RCTP) |
| Time | Latitude | Longitude | Altitude | Speed | Heading |
|---|---|---|---|---|---|
| 2026-04-30 12:12 | 14.87586 | 115.43831 | 34956 ft | 513 kts | 46° |
| 2026-04-30 12:13 | 14.92466 | 115.49209 | 34953 ft | 514 kts | 46° |
| 2026-04-30 12:13 | 14.97353 | 115.54599 | 34956 ft | 514 kts | 46° |
| 2026-04-30 12:14 | 15.01412 | 115.59078 | 34956 ft | 513 kts | 46° |
| 2026-04-30 12:14 | 15.06295 | 115.64471 | 34954 ft | 513 kts | 46° |
| 2026-04-30 12:15 | 15.11174 | 115.69863 | 34954 ft | 513 kts | 46° |
| 2026-04-30 12:15 | 15.16055 | 115.75260 | 34961 ft | 513 kts | 46° |
| 2026-04-30 12:16 | 15.20937 | 115.80664 | 34956 ft | 514 kts | 46° |
| 2026-04-30 12:16 | 15.25815 | 115.86066 | 34955 ft | 514 kts | 46° |
| 2026-04-30 12:17 | 15.33132 | 115.94178 | 34956 ft | 514 kts | 46° |
| 2026-04-30 12:17 | 15.38008 | 115.99587 | 34955 ft | 514 kts | 47° |
| 2026-04-30 12:18 | 15.42890 | 116.05009 | 34960 ft | 514 kts | 46° |
| 2026-04-30 12:18 | 15.47768 | 116.10429 | 34961 ft | 514 kts | 46° |
| 2026-04-30 12:19 | 15.52646 | 116.15854 | 34958 ft | 514 kts | 46° |
| 2026-04-30 12:19 | 15.57522 | 116.21281 | 34958 ft | 514 kts | 46° |
| 2026-04-30 12:20 | 15.62397 | 116.26710 | 34959 ft | 514 kts | 47° |
| 2026-04-30 12:20 | 15.67240 | 116.32107 | 34961 ft | 514 kts | 47° |
| 2026-04-30 12:21 | 15.72115 | 116.37544 | 34968 ft | 515 kts | 46° |
| 2026-04-30 12:21 | 15.76991 | 116.42987 | 34964 ft | 515 kts | 46° |
| 2026-04-30 12:22 | 15.81867 | 116.48434 | 34965 ft | 515 kts | 46° |
| 2026-04-30 12:22 | 15.86743 | 116.53885 | 34963 ft | 515 kts | 46° |
| 2026-04-30 12:23 | 15.91616 | 116.59336 | 34959 ft | 515 kts | 47° |
| 2026-04-30 12:23 | 15.96492 | 116.64796 | 34970 ft | 516 kts | 47° |
| 2026-04-30 12:24 | 16.01369 | 116.70260 | 34969 ft | 516 kts | 47° |
| 2026-04-30 12:24 | 16.06247 | 116.75730 | 34963 ft | 516 kts | 47° |
| 2026-04-30 12:25 | 16.11119 | 116.81199 | 34966 ft | 515 kts | 47° |
| 2026-04-30 12:25 | 16.15987 | 116.86665 | 34967 ft | 515 kts | 47° |
| 2026-04-30 12:26 | 16.20855 | 116.92137 | 34969 ft | 515 kts | 47° |
| 2026-04-30 12:26 | 16.25723 | 116.97613 | 34980 ft | 515 kts | 47° |
| 2026-04-30 12:27 | 16.30586 | 117.03087 | 34965 ft | 515 kts | 47° |
| 2026-04-30 12:27 | 16.35449 | 117.08568 | 34967 ft | 515 kts | 47° |
| 2026-04-30 12:28 | 16.40306 | 117.14045 | 34970 ft | 515 kts | 47° |
| 2026-04-30 12:28 | 16.45162 | 117.19525 | 34960 ft | 515 kts | 47° |
| 2026-04-30 12:29 | 16.50016 | 117.25006 | 34970 ft | 515 kts | 47° |
| 2026-04-30 12:29 | 16.54876 | 117.30498 | 34977 ft | 515 kts | 47° |
| 2026-04-30 12:30 | 16.59733 | 117.35994 | 34967 ft | 515 kts | 47° |
| 2026-04-30 12:30 | 16.64588 | 117.41492 | 34971 ft | 515 kts | 47° |
| 2026-04-30 12:31 | 16.69440 | 117.46992 | 34970 ft | 515 kts | 47° |
| 2026-04-30 12:31 | 16.74287 | 117.52490 | 34966 ft | 515 kts | 47° |
| 2026-04-30 12:32 | 16.79137 | 117.57997 | 34975 ft | 515 kts | 47° |
| 2026-04-30 12:32 | 16.83990 | 117.63511 | 34974 ft | 516 kts | 47° |
| 2026-04-30 12:33 | 16.88846 | 117.69033 | 34971 ft | 516 kts | 47° |
| 2026-04-30 12:33 | 16.93670 | 117.74522 | 34971 ft | 517 kts | 47° |
| 2026-04-30 12:34 | 16.98558 | 117.80089 | 34972 ft | 517 kts | 47° |
| 2026-04-30 12:34 | 17.03417 | 117.85628 | 34969 ft | 517 kts | 47° |
| 2026-04-30 12:35 | 17.08238 | 117.91128 | 34977 ft | 516 kts | 47° |
| 2026-04-30 12:35 | 17.13084 | 117.96662 | 34974 ft | 516 kts | 47° |
| 2026-04-30 12:36 | 17.17921 | 118.02189 | 34978 ft | 515 kts | 47° |
| 2026-04-30 12:36 | 17.22753 | 118.07715 | 34972 ft | 514 kts | 47° |
| 2026-04-30 12:37 | 17.27582 | 118.13243 | 34976 ft | 515 kts | 47° |
| 2026-04-30 12:37 | 17.32407 | 118.18771 | 34988 ft | 515 kts | 47° |
| 2026-04-30 12:38 | 17.37238 | 118.24310 | 34979 ft | 515 kts | 47° |
| 2026-04-30 12:38 | 17.42069 | 118.29854 | 34981 ft | 515 kts | 47° |
| 2026-04-30 12:39 | 17.46896 | 118.35397 | 34977 ft | 515 kts | 47° |
| 2026-04-30 12:39 | 17.51721 | 118.40944 | 34974 ft | 515 kts | 47° |
| 2026-04-30 12:40 | 17.56546 | 118.46496 | 34989 ft | 516 kts | 47° |
| 2026-04-30 12:40 | 17.61377 | 118.52059 | 34980 ft | 516 kts | 47° |
| 2026-04-30 12:41 | 17.66207 | 118.57625 | 34978 ft | 516 kts | 47° |
| 2026-04-30 12:41 | 17.71038 | 118.63197 | 34978 ft | 516 kts | 47° |
| 2026-04-30 12:42 | 17.75866 | 118.68771 | 34978 ft | 516 kts | 47° |
| 2026-04-30 12:42 | 17.80694 | 118.74350 | 34981 ft | 516 kts | 47° |
| 2026-04-30 12:43 | 17.85522 | 118.79934 | 34981 ft | 517 kts | 47° |
| 2026-04-30 12:43 | 17.90352 | 118.85525 | 34980 ft | 517 kts | 47° |
| 2026-04-30 12:44 | 17.95183 | 118.91124 | 34978 ft | 517 kts | 47° |
| 2026-04-30 12:44 | 18.00013 | 118.96724 | 34981 ft | 517 kts | 47° |
| 2026-04-30 12:45 | 18.04847 | 119.02327 | 34985 ft | 518 kts | 47° |
| 2026-04-30 12:45 | 18.09683 | 119.07936 | 34990 ft | 518 kts | 47° |
| 2026-04-30 12:46 | 18.14520 | 119.13554 | 34983 ft | 518 kts | 47° |
| 2026-04-30 12:46 | 18.19327 | 119.19142 | 34985 ft | 519 kts | 47° |
| 2026-04-30 12:47 | 18.24169 | 119.24776 | 34984 ft | 519 kts | 47° |
| 2026-04-30 12:47 | 18.29009 | 119.30414 | 34983 ft | 519 kts | 47° |
| 2026-04-30 12:48 | 18.33848 | 119.36054 | 34996 ft | 519 kts | 47° |
| 2026-04-30 12:48 | 18.38691 | 119.41705 | 34985 ft | 520 kts | 47° |
| 2026-04-30 12:49 | 18.43542 | 119.47370 | 34987 ft | 521 kts | 47° |
| 2026-04-30 12:49 | 18.48389 | 119.53036 | 34986 ft | 521 kts | 47° |
| 2026-04-30 12:50 | 18.53239 | 119.58711 | 34987 ft | 521 kts | 47° |
| 2026-04-30 12:50 | 18.58087 | 119.64390 | 34998 ft | 521 kts | 46° |
| 2026-04-30 12:51 | 18.62937 | 119.70074 | 34987 ft | 522 kts | 46° |
| 2026-04-30 12:51 | 18.67791 | 119.75766 | 34991 ft | 522 kts | 46° |
| 2026-04-30 12:52 | 18.72645 | 119.81465 | 34990 ft | 522 kts | 47° |
| 2026-04-30 12:52 | 18.77499 | 119.87171 | 34989 ft | 522 kts | 47° |
| 2026-04-30 12:53 | 18.82353 | 119.92882 | 35002 ft | 523 kts | 47° |
| 2026-04-30 12:53 | 18.87207 | 119.98599 | 34991 ft | 523 kts | 46° |
| 2026-04-30 12:54 | 18.92066 | 120.04327 | 34992 ft | 524 kts | 46° |
| 2026-04-30 12:54 | 18.96928 | 120.10064 | 34992 ft | 524 kts | 46° |
| 2026-04-30 12:55 | 19.01788 | 120.15804 | 34989 ft | 524 kts | 47° |
| 2026-04-30 12:55 | 19.06646 | 120.21547 | 34988 ft | 524 kts | 47° |
| 2026-04-30 12:56 | 19.10684 | 120.26325 | 35001 ft | 525 kts | 46° |
| 2026-04-30 12:56 | 19.15694 | 120.32258 | 34995 ft | 525 kts | 46° |
| 2026-04-30 12:57 | 19.20560 | 120.38027 | 34994 ft | 526 kts | 46° |
| 2026-04-30 12:57 | 19.25433 | 120.43809 | 34996 ft | 526 kts | 47° |
| 2026-04-30 12:58 | 19.30298 | 120.49589 | 34997 ft | 526 kts | 47° |
| 2026-04-30 12:58 | 19.35163 | 120.55375 | 34997 ft | 526 kts | 47° |
| 2026-04-30 12:59 | 19.40376 | 120.60716 | 34989 ft | 518 kts | 29° |
| 2026-04-30 12:59 | 19.43574 | 120.62416 | 35005 ft | 512 kts | 17° |
| 2026-04-30 12:59 | 19.46935 | 120.63407 | 35007 ft | 506 kts | 4° |
| 2026-04-30 13:00 | 19.53885 | 120.63924 | 35005 ft | 501 kts | 359° |
| 2026-04-30 13:00 | 19.60875 | 120.64397 | 35016 ft | 505 kts | 359° |
| 2026-04-30 13:01 | 19.66765 | 120.64852 | 35008 ft | 508 kts | 360° |
| 2026-04-30 13:01 | 19.73818 | 120.65428 | 35005 ft | 509 kts | 360° |
| 2026-04-30 13:02 | 19.80885 | 120.66011 | 35001 ft | 509 kts | 360° |
| 2026-04-30 13:02 | 19.89090 | 120.66684 | 35012 ft | 508 kts | 359° |
| 2026-04-30 13:03 | 19.94935 | 120.67162 | 35004 ft | 506 kts | 359° |
| 2026-04-30 13:03 | 20.01947 | 120.67735 | 35001 ft | 504 kts | 359° |
| 2026-04-30 13:04 | 20.08928 | 120.68305 | 34999 ft | 502 kts | 359° |
| 2026-04-30 13:04 | 20.15891 | 120.68875 | 35024 ft | 501 kts | 360° |
| 2026-04-30 13:05 | 20.22839 | 120.69444 | 35000 ft | 500 kts | 360° |
| 2026-04-30 13:06 | 20.33241 | 120.70297 | 35000 ft | 499 kts | 360° |
| 2026-04-30 13:06 | 20.40170 | 120.70865 | 35011 ft | 499 kts | 360° |
| 2026-04-30 13:07 | 20.47101 | 120.71435 | 35007 ft | 500 kts | 360° |
| 2026-04-30 13:07 | 20.54032 | 120.72005 | 35007 ft | 500 kts | 360° |
| 2026-04-30 13:08 | 20.60966 | 120.72576 | 35010 ft | 499 kts | 360° |
| 2026-04-30 13:08 | 20.67891 | 120.73146 | 35011 ft | 499 kts | 360° |
| 2026-04-30 13:09 | 20.74823 | 120.73718 | 35024 ft | 499 kts | 360° |
| 2026-04-30 13:09 | 20.81744 | 120.74290 | 35013 ft | 499 kts | 360° |
| 2026-04-30 13:10 | 20.88668 | 120.74862 | 35012 ft | 499 kts | 360° |
| 2026-04-30 13:10 | 20.94417 | 120.75338 | 35015 ft | 498 kts | 360° |
| 2026-04-30 13:11 | 21.00870 | 120.75292 | 35022 ft | 491 kts | 349° |
| 2026-04-30 13:11 | 21.07485 | 120.74005 | 35014 ft | 485 kts | 341° |
| 2026-04-30 13:12 | 21.14028 | 120.72274 | 35017 ft | 484 kts | 341° |
| 2026-04-30 13:12 | 21.20576 | 120.70563 | 35020 ft | 484 kts | 342° |
| 2026-04-30 13:13 | 21.30420 | 120.68045 | 35036 ft | 485 kts | 342° |
| 2026-04-30 13:14 | 21.40275 | 120.65529 | 35022 ft | 485 kts | 342° |
| 2026-04-30 13:14 | 21.50125 | 120.63006 | 35026 ft | 485 kts | 342° |
| 2026-04-30 13:15 | 21.59976 | 120.60484 | 35033 ft | 485 kts | 342° |
| 2026-04-30 13:16 | 21.66544 | 120.58808 | 35028 ft | 485 kts | 342° |
| 2026-04-30 13:16 | 21.73112 | 120.57129 | 35021 ft | 485 kts | 342° |
| 2026-04-30 13:17 | 21.82963 | 120.54602 | 35027 ft | 485 kts | 342° |
| 2026-04-30 13:18 | 21.92799 | 120.52059 | 35045 ft | 485 kts | 342° |
| 2026-04-30 13:18 | 22.02638 | 120.49511 | 35026 ft | 485 kts | 342° |
| 2026-04-30 13:19 | 22.09197 | 120.47812 | 35031 ft | 485 kts | 342° |
| 2026-04-30 13:19 | 22.15763 | 120.46109 | 35016 ft | 485 kts | 342° |
| 2026-04-30 13:20 | 22.22327 | 120.44406 | 35021 ft | 485 kts | 342° |
| 2026-04-30 13:20 | 22.28894 | 120.42699 | 35010 ft | 485 kts | 342° |
| 2026-04-30 13:21 | 22.35460 | 120.40991 | 35012 ft | 485 kts | 342° |
| 2026-04-30 13:22 | 22.42518 | 120.39152 | 34999 ft | 486 kts | 341° |
| 2026-04-30 13:22 | 22.45768 | 120.38304 | 34731 ft | 490 kts | 341° |
| 2026-04-30 13:22 | 22.52395 | 120.36578 | 33680 ft | 486 kts | 341° |
| 2026-04-30 13:23 | 22.55712 | 120.35716 | 33117 ft | 481 kts | 341° |
| 2026-04-30 13:23 | 22.62164 | 120.34035 | 32083 ft | 472 kts | 341° |
| 2026-04-30 13:24 | 22.68451 | 120.32390 | 31088 ft | 464 kts | 341° |
| 2026-04-30 13:24 | 22.74681 | 120.30758 | 30079 ft | 457 kts | 341° |
| 2026-04-30 13:25 | 22.80818 | 120.29150 | 29015 ft | 450 kts | 341° |
| 2026-04-30 13:25 | 22.86478 | 120.27676 | 28403 ft | 434 kts | 341° |
| 2026-04-30 13:26 | 22.95076 | 120.25431 | 27513 ft | 419 kts | 341° |
| 2026-04-30 13:26 | 23.00792 | 120.23929 | 26920 ft | 425 kts | 342° |
| 2026-04-30 13:27 | 23.06528 | 120.22428 | 26305 ft | 422 kts | 342° |
| 2026-04-30 13:28 | 23.15110 | 120.20603 | 25363 ft | 422 kts | 0° |
| 2026-04-30 13:28 | 23.20905 | 120.21386 | 24782 ft | 418 kts | 3° |
| 2026-04-30 13:28 | 23.23787 | 120.21778 | 24491 ft | 417 kts | 3° |
| 2026-04-30 13:29 | 23.29544 | 120.22510 | 23882 ft | 415 kts | 2° |
| 2026-04-30 13:29 | 23.35270 | 120.23202 | 23237 ft | 412 kts | 2° |
| 2026-04-30 13:30 | 23.43731 | 120.24213 | 22333 ft | 404 kts | 2° |
| 2026-04-30 13:31 | 23.49282 | 120.24878 | 21762 ft | 399 kts | 2° |
| 2026-04-30 13:31 | 23.57502 | 120.25863 | 20920 ft | 394 kts | 2° |
| 2026-04-30 13:32 | 23.62930 | 120.26514 | 20355 ft | 392 kts | 2° |
| 2026-04-30 13:32 | 23.68339 | 120.27163 | 19808 ft | 390 kts | 1° |
| 2026-04-30 13:33 | 23.73680 | 120.28235 | 19247 ft | 393 kts | 12° |
| 2026-04-30 13:33 | 23.78885 | 120.30122 | 18677 ft | 394 kts | 14° |
| 2026-04-30 13:34 | 23.81475 | 120.31096 | 18388 ft | 394 kts | 14° |
| 2026-04-30 13:34 | 23.89242 | 120.33899 | 17484 ft | 389 kts | 13° |
| 2026-04-30 13:35 | 23.91805 | 120.34798 | 17210 ft | 386 kts | 13° |
| 2026-04-30 13:35 | 23.96891 | 120.36566 | 16658 ft | 381 kts | 13° |
| 2026-04-30 13:36 | 24.01918 | 120.38309 | 16119 ft | 376 kts | 13° |
| 2026-04-30 13:36 | 24.04407 | 120.39173 | 15864 ft | 375 kts | 13° |
| 2026-04-30 13:36 | 24.09317 | 120.40877 | 15327 ft | 371 kts | 13° |
| 2026-04-30 13:37 | 24.11774 | 120.41730 | 15067 ft | 370 kts | 13° |
| 2026-04-30 13:37 | 24.16655 | 120.43427 | 14553 ft | 367 kts | 13° |
| 2026-04-30 13:38 | 24.21510 | 120.45116 | 14032 ft | 365 kts | 13° |
| 2026-04-30 13:38 | 24.23928 | 120.45958 | 13742 ft | 364 kts | 13° |
| 2026-04-30 13:38 | 24.28739 | 120.47634 | 13190 ft | 361 kts | 14° |
| 2026-04-30 13:39 | 24.33510 | 120.49298 | 12666 ft | 358 kts | 14° |
| 2026-04-30 13:39 | 24.38234 | 120.50946 | 12156 ft | 355 kts | 14° |
| 2026-04-30 13:40 | 24.40584 | 120.51767 | 11905 ft | 354 kts | 13° |
| 2026-04-30 13:40 | 24.42923 | 120.52583 | 11648 ft | 352 kts | 13° |
| 2026-04-30 13:40 | 24.45256 | 120.53399 | 11391 ft | 352 kts | 14° |
| 2026-04-30 13:40 | 24.47593 | 120.54216 | 11061 ft | 353 kts | 14° |
| 2026-04-30 13:41 | 24.49919 | 120.55030 | 10821 ft | 348 kts | 14° |
| 2026-04-30 13:41 | 24.52208 | 120.55833 | 10535 ft | 342 kts | 13° |
| 2026-04-30 13:41 | 24.54450 | 120.56618 | 10289 ft | 334 kts | 13° |
| 2026-04-30 13:41 | 24.56642 | 120.57388 | 10052 ft | 327 kts | 14° |
| 2026-04-30 13:42 | 24.58780 | 120.58136 | 9904 ft | 316 kts | 14° |
| 2026-04-30 13:42 | 24.60839 | 120.58857 | 9610 ft | 306 kts | 14° |
| 2026-04-30 13:42 | 24.64631 | 120.60709 | 8842 ft | 304 kts | 47° |
| 2026-04-30 13:43 | 24.65857 | 120.62556 | 8625 ft | 298 kts | 55° |
| 2026-04-30 13:43 | 24.67032 | 120.64444 | 8359 ft | 301 kts | 54° |
| 2026-04-30 13:43 | 24.68234 | 120.66333 | 8137 ft | 302 kts | 54° |
| 2026-04-30 13:43 | 24.69451 | 120.68220 | 7917 ft | 302 kts | 54° |
| 2026-04-30 13:44 | 24.70670 | 120.70094 | 7680 ft | 300 kts | 53° |
| 2026-04-30 13:44 | 24.71876 | 120.71936 | 7453 ft | 295 kts | 53° |
| 2026-04-30 13:44 | 24.73070 | 120.73750 | 7241 ft | 292 kts | 53° |
| 2026-04-30 13:44 | 24.74259 | 120.75553 | 7030 ft | 290 kts | 53° |
| 2026-04-30 13:45 | 24.76631 | 120.79143 | 6621 ft | 291 kts | 54° |
| 2026-04-30 13:45 | 24.77825 | 120.80952 | 6380 ft | 294 kts | 54° |
| 2026-04-30 13:45 | 24.79021 | 120.82761 | 6180 ft | 292 kts | 54° |
| 2026-04-30 13:46 | 24.80211 | 120.84558 | 5954 ft | 287 kts | 53° |
| 2026-04-30 13:46 | 24.80980 | 120.85720 | 5809 ft | 282 kts | 54° |
| 2026-04-30 13:46 | 24.82125 | 120.87453 | 5592 ft | 278 kts | 53° |
| 2026-04-30 13:46 | 24.83611 | 120.89703 | 5328 ft | 270 kts | 53° |
| 2026-04-30 13:47 | 24.84697 | 120.91347 | 5143 ft | 261 kts | 53° |
| 2026-04-30 13:47 | 24.85754 | 120.92949 | 4948 ft | 256 kts | 53° |
| 2026-04-30 13:47 | 24.86781 | 120.94507 | 4749 ft | 246 kts | 52° |
| 2026-04-30 13:47 | 24.87749 | 120.95975 | 4552 ft | 229 kts | 52° |
| 2026-04-30 13:48 | 24.88662 | 120.97357 | 4469 ft | 220 kts | 52° |
| 2026-04-30 13:48 | 24.89270 | 120.98279 | 4361 ft | 221 kts | 53° |
| 2026-04-30 13:48 | 24.90446 | 121.00089 | 4138 ft | 216 kts | 52° |
| 2026-04-30 13:48 | 24.91054 | 121.00966 | 4080 ft | 210 kts | 51° |
| 2026-04-30 13:49 | 24.91949 | 121.02164 | 4018 ft | 202 kts | 49° |
| 2026-04-30 13:49 | 24.92858 | 121.03331 | 3984 ft | 197 kts | 49° |
| 2026-04-30 13:49 | 24.93735 | 121.04445 | 4030 ft | 190 kts | 48° |
| 2026-04-30 13:49 | 24.94620 | 121.05565 | 3816 ft | 193 kts | 48° |
| 2026-04-30 13:50 | 24.95473 | 121.06644 | 3585 ft | 182 kts | 49° |
| 2026-04-30 13:50 | 24.97067 | 121.08660 | 3128 ft | 170 kts | 49° |
| 2026-04-30 13:50 | 24.97851 | 121.09651 | 2934 ft | 172 kts | 50° |
| 2026-04-30 13:51 | 24.98645 | 121.10658 | 2685 ft | 172 kts | 50° |
| 2026-04-30 13:51 | 24.99403 | 121.11617 | 2485 ft | 163 kts | 50° |
| 2026-04-30 13:51 | 25.00125 | 121.12530 | 2250 ft | 153 kts | 50° |
| 2026-04-30 13:51 | 25.00794 | 121.13378 | 2072 ft | 142 kts | 49° |
| 2026-04-30 13:52 | 25.01442 | 121.14197 | 1893 ft | 143 kts | 50° |
| 2026-04-30 13:52 | 25.02103 | 121.15037 | 1700 ft | 142 kts | 49° |
| 2026-04-30 13:52 | 25.02727 | 121.15825 | 1472 ft | 132 kts | 49° |
| 2026-04-30 13:52 | 25.03328 | 121.16587 | 1330 ft | 131 kts | 48° |
| 2026-04-30 13:53 | 25.03924 | 121.17343 | 1154 ft | 130 kts | 48° |
| 2026-04-30 13:53 | 25.04532 | 121.18113 | 999 ft | 137 kts | 48° |
| 2026-04-30 13:53 | 25.05180 | 121.18919 | 824 ft | 141 kts | 49° |
| 2026-04-30 13:53 | 25.05828 | 121.19723 | 603 ft | 139 kts | 50° |
| 2026-04-30 13:54 | 25.06448 | 121.20512 | 392 ft | 137 kts | 50° |
| 2026-04-30 13:54 | 25.07063 | 121.21292 | 227 ft | 133 kts | 52° |
| 2026-04-30 13:54 | 25.07654 | 121.22062 | 106 ft | 124 kts | 50° |
| 2026-04-30 13:54 | 25.08123 | 121.22658 | 107 ft | 77 kts | 49° |
| 2026-04-30 13:55 | 25.08355 | 121.22954 | 107 ft | 35 kts | 52° |
| 2026-04-30 13:55 | 25.08430 | 121.23126 | 107 ft | 19 kts | 72° |
| 2026-04-30 13:55 | 25.08456 | 121.23257 | 107 ft | 15 kts | 82° |
| 2026-04-30 13:55 | 25.08477 | 121.23364 | 106 ft | 12 kts | 63° |
| 2026-04-30 13:56 | 25.08508 | 121.23454 | 107 ft | 13 kts | 68° |
| 2026-04-30 13:56 | 25.08557 | 121.23533 | 105 ft | 13 kts | 49° |
| 2026-04-30 13:56 | 25.08614 | 121.23607 | 108 ft | 13 kts | 48° |
| 2026-04-30 13:56 | 25.08671 | 121.23677 | 105 ft | 13 kts | 49° |
| 2026-04-30 13:57 | 25.08728 | 121.23750 | 107 ft | 13 kts | 49° |
| 2026-04-30 13:57 | 25.08785 | 121.23822 | 105 ft | 13 kts | 49° |
| 2026-04-30 13:57 | 25.08794 | 121.23834 | 105 ft | 3 kts | 50° |
| 2026-04-30 13:57 | 25.08803 | 121.23869 | 108 ft | 5 kts | 99° |
| 2026-04-30 13:58 | 25.08778 | 121.23899 | 107 ft | 5 kts | 139° |
| 2026-04-30 13:58 | 25.08730 | 121.23945 | 107 ft | 0 kts | 139° |